Felts Field
KSFF : now visible

Airfield :











YOU CAN JOIN US ON...

 
LOGIN :

Register | Disclaimer

   EN    FR    IT 

 









Legend :    VFR   Marginal VFR   IFR   Intensive IFR   Very Intensive IFR
Visi :
Ceiling :
>= 8 km
>= 3000ft
5 to 8 km
1000 to 3000 ft
1500m to 5 km
500 to 1000 ft
800 to 1500m
200 to 500 ft
< 800m
< 200 ft
Symbols :   Thunderstorms  Fog  Heavy snow  Heavy precipitations  Wind > 20 kt







- Airport Elevation : 1953 ft


KSFF - Felts Field

CURRENT METAR :
  • 181153Z AUTO 00000KT 10SM BKN070 OVC085 12/09 A2982 RMK AO2 SLP091 T01220089 10144 20117 58003

EXPIRED METARs :
  • 181053Z AUTO 00000KT 10SM FEW065 OVC090 12/08 A2982 RMK AO2 SLP092 T01220083
  • 180953Z AUTO 00000KT 10SM BKN070 OVC100 13/08 A2984 RMK AO2 SLP095 T01280083
  • 180853Z AUTO 00000KT 10SM BKN060 OVC095 13/08 A2983 RMK AO2 SLP095 T01280083 56007

TAF KSFF
Valid from the 18 at 12:00 until the 19 at 12:00 UTC


181120Z 1812/1912 09003KT P6SM -RA SCT015 BKN050 OVC090
FM181700 12003KT P6SM BKN025 BKN100
PROB30 1821/1901 -TSRA BKN040CB
FM190200 05002KT P6SM OVC050
FM190600 VRB02KT P6SM OVC100
No reported NOTAMs for that airfield.



MET'MAP, your aeronautical weather chart ! - Copyright ORBIFLY December 2007 - Disclaimer

ORBIFLY MET'MAP TEAM :

Programming & Development : Alexandra Zaïnal
Concept & Development : Baudouin d'Aumeries
Co-Development & Prog : Marc-Olivier Méhu
Technical & hardware support : Manuel Goepfert

Contact : metmap@orbifly.com




SOURCES & CREDITS :

   NOAA       Earth
Advisory